Etusivu
METAR-TAF:

METAR-TAF

Lentoasemat :

Hohn, Saksa

Leveyspiiri: 54-19N, Pituuspiiri: 009-32E, korkeus merenpinnasta: 12 m

Tämänhetkinen sää

Tämä raportti tehtiin 1 tunti ja 2 minuuttia sitten, kello 21.20 UTC
Tuuli 1 kn eri suunnista
Lämpötila 8°C
Kosteus 81%
Ilmanpaine 1022 hPa
Näkyvyys 10 km tai enemmän
Hajanaisia pilviä 13000 ft:n korkeudessa

METAR: ETNH 082120Z VRB01KT 9999 SCT130 08/05 Q1022 BLU+

Aika: 00:22 (22:22 UTC)

Sääennuste

Tämä raportti tehtiin 6 tuntia ja 22 minuuttia sitten, kello 16.00 UTC
Ennuste voimassa 08. päivästä klo 17 UTC - 09. päivään klo 05 UTC
Tuuli 5 kn lännestä
Näkyvyys 10 km tai enemmän
Hajanaisia pilviä 25000 ft:n korkeudessa
Todennäköisyys 30%
08. päivästä klo 23 UTC - 09. päivään klo 05 UTC
Tuuli 3 kn eri suunnista
Näkyvyys: 5000 m
selkeää
utua

TAF: ETNH 081600Z 0817/0905 28005KT 9999 NSW SCT250 PROB30 0823/0905 VRB03KT 5000 BR SKC BY ETGL

Säähavainnot ja -ennusteet yli 4000 lentoasemalta (METAR- ja TAF-raportit).

Käytössä olevat sääasemat on merkitty karttaan keltaisilla ja punaisilla pisteillä.

Aseta hiiri pisteen päälle nähdäksesi sääaseman nimen.

Klikkaa sitten nähdäksesi säähavainnot ja -ennusteet.

Kartan vaihtaminen: klikkaa mustalla rastilla varustettuja vihreitä pisteitä, niin voit zoomata sisään; viivalla varustettua vihreää pistettä, niin voit zoomata ulos tai vihreitä nuolia, niin pääset viereisille kartoille.


METAR-TAF: